sensor_id;sensor_type;location;lat;lon;timestamp;P1;durP1;ratioP1;P2;durP2;ratioP2
75814;SDS011;70031;45.570;14.228;2023-07-31T00:01:11;4.07;;;1.23;;
75814;SDS011;70031;45.570;14.228;2023-07-31T00:03:12;3.80;;;1.58;;
75814;SDS011;70031;45.570;14.228;2023-07-31T00:05:12;1.15;;;1.00;;
75814;SDS011;70031;45.570;14.228;2023-07-31T00:07:12;4.72;;;1.20;;
75814;SDS011;70031;45.570;14.228;2023-07-31T00:09:13;2.47;;;0.85;;
75814;SDS011;70031;45.570;14.228;2023-07-31T00:11:13;1.35;;;1.00;;
75814;SDS011;70031;45.570;14.228;2023-07-31T00:13:13;3.58;;;1.20;;
75814;SDS011;70031;45.570;14.228;2023-07-31T00:15:14;4.22;;;1.23;;
75814;SDS011;70031;45.570;14.228;2023-07-31T00:17:16;1.25;;;0.93;;
75814;SDS011;70031;45.570;14.228;2023-07-31T00:19:17;3.25;;;1.50;;
75814;SDS011;70031;45.570;14.228;2023-07-31T00:21:17;4.72;;;1.35;;
75814;SDS011;70031;45.570;14.228;2023-07-31T00:23:18;4.57;;;0.95;;
75814;SDS011;70031;45.570;14.228;2023-07-31T00:25:18;2.55;;;1.50;;
75814;SDS011;70031;45.570;14.228;2023-07-31T00:27:18;2.22;;;1.15;;
75814;SDS011;70031;45.570;14.228;2023-07-31T00:29:19;3.10;;;1.17;;
75814;SDS011;70031;45.570;14.228;2023-07-31T00:31:19;1.80;;;1.13;;
75814;SDS011;70031;45.570;14.228;2023-07-31T00:33:20;2.67;;;1.40;;
75814;SDS011;70031;45.570;14.228;2023-07-31T00:35:20;2.78;;;1.50;;
75814;SDS011;70031;45.570;14.228;2023-07-31T00:37:20;5.72;;;1.40;;
75814;SDS011;70031;45.570;14.228;2023-07-31T00:39:21;2.65;;;1.17;;
75814;SDS011;70031;45.570;14.228;2023-07-31T00:41:21;2.17;;;1.40;;
75814;SDS011;70031;45.570;14.228;2023-07-31T00:43:21;3.00;;;1.35;;
75814;SDS011;70031;45.570;14.228;2023-07-31T00:45:22;3.05;;;1.40;;
75814;SDS011;70031;45.570;14.228;2023-07-31T00:47:23;3.33;;;1.20;;
75814;SDS011;70031;45.570;14.228;2023-07-31T00:49:24;3.63;;;1.08;;
75814;SDS011;70031;45.570;14.228;2023-07-31T00:51:25;1.73;;;1.30;;
75814;SDS011;70031;45.570;14.228;2023-07-31T00:53:25;2.88;;;1.23;;
75814;SDS011;70031;45.570;14.228;2023-07-31T00:55:25;2.05;;;1.20;;
75814;SDS011;70031;45.570;14.228;2023-07-31T00:57:26;6.45;;;1.30;;
75814;SDS011;70031;45.570;14.228;2023-07-31T00:59:26;1.45;;;1.13;;
75814;SDS011;70031;45.570;14.228;2023-07-31T01:01:27;2.85;;;1.33;;
75814;SDS011;70031;45.570;14.228;2023-07-31T01:03:27;4.50;;;1.20;;
75814;SDS011;70031;45.570;14.228;2023-07-31T01:10:16;1.23;;;1.10;;
75814;SDS011;70031;45.570;14.228;2023-07-31T01:12:21;6.53;;;1.58;;
75814;SDS011;70031;45.570;14.228;2023-07-31T01:16:25;2.05;;;0.95;;
75814;SDS011;70031;45.570;14.228;2023-07-31T01:18:25;1.73;;;1.23;;
75814;SDS011;70031;45.570;14.228;2023-07-31T01:20:26;1.98;;;1.05;;
75814;SDS011;70031;45.570;14.228;2023-07-31T01:25:20;2.40;;;1.48;;
75814;SDS011;70031;45.570;14.228;2023-07-31T01:27:51;1.70;;;1.30;;
75814;SDS011;70031;45.570;14.228;2023-07-31T01:30:00;1.85;;;1.40;;
75814;SDS011;70031;45.570;14.228;2023-07-31T01:32:10;2.75;;;1.60;;
75814;SDS011;70031;45.570;14.228;2023-07-31T01:34:12;5.23;;;1.43;;
75814;SDS011;70031;45.570;14.228;2023-07-31T01:36:16;2.17;;;1.23;;
75814;SDS011;70031;45.570;14.228;2023-07-31T01:38:20;21.92;;;1.65;;
75814;SDS011;70031;45.570;14.228;2023-07-31T01:40:21;1.50;;;1.00;;
75814;SDS011;70031;45.570;14.228;2023-07-31T01:42:21;4.30;;;1.30;;
75814;SDS011;70031;45.570;14.228;2023-07-31T01:44:22;3.38;;;1.58;;
75814;SDS011;70031;45.570;14.228;2023-07-31T01:46:22;1.80;;;1.25;;
75814;SDS011;70031;45.570;14.228;2023-07-31T01:48:23;2.08;;;1.25;;
75814;SDS011;70031;45.570;14.228;2023-07-31T01:50:23;2.30;;;1.35;;
75814;SDS011;70031;45.570;14.228;2023-07-31T01:52:23;2.65;;;1.35;;
75814;SDS011;70031;45.570;14.228;2023-07-31T01:54:24;8.18;;;1.92;;
75814;SDS011;70031;45.570;14.228;2023-07-31T01:56:24;8.50;;;1.70;;
75814;SDS011;70031;45.570;14.228;2023-07-31T01:58:24;2.22;;;1.50;;
75814;SDS011;70031;45.570;14.228;2023-07-31T04:15:47;1.65;;;1.20;;
75814;SDS011;70031;45.570;14.228;2023-07-31T04:17:51;10.65;;;1.60;;
75814;SDS011;70031;45.570;14.228;2023-07-31T04:19:54;7.80;;;1.50;;
75814;SDS011;70031;45.570;14.228;2023-07-31T04:22:06;2.25;;;1.40;;
75814;SDS011;70031;45.570;14.228;2023-07-31T04:24:06;2.97;;;1.30;;
75814;SDS011;70031;45.570;14.228;2023-07-31T04:26:09;9.65;;;1.17;;
75814;SDS011;70031;45.570;14.228;2023-07-31T04:34:48;3.78;;;1.60;;
75814;SDS011;70031;45.570;14.228;2023-07-31T04:36:54;5.97;;;1.65;;
75814;SDS011;70031;45.570;14.228;2023-07-31T04:39:00;14.80;;;1.50;;
75814;SDS011;70031;45.570;14.228;2023-07-31T04:41:01;2.47;;;1.60;;
75814;SDS011;70031;45.570;14.228;2023-07-31T04:43:03;17.48;;;1.42;;
75814;SDS011;70031;45.570;14.228;2023-07-31T04:45:04;22.48;;;1.80;;
75814;SDS011;70031;45.570;14.228;2023-07-31T04:47:05;2.83;;;1.80;;
75814;SDS011;70031;45.570;14.228;2023-07-31T04:49:06;13.52;;;2.20;;
75814;SDS011;70031;45.570;14.228;2023-07-31T04:51:06;14.10;;;2.20;;
75814;SDS011;70031;45.570;14.228;2023-07-31T04:53:06;15.98;;;2.03;;
75814;SDS011;70031;45.570;14.228;2023-07-31T04:55:07;4.70;;;1.75;;
75814;SDS011;70031;45.570;14.228;2023-07-31T04:57:10;16.50;;;1.98;;
75814;SDS011;70031;45.570;14.228;2023-07-31T04:59:14;21.17;;;2.05;;
75814;SDS011;70031;45.570;14.228;2023-07-31T05:07:57;17.00;;;2.10;;
75814;SDS011;70031;45.570;14.228;2023-07-31T05:10:40;13.57;;;2.50;;
75814;SDS011;70031;45.570;14.228;2023-07-31T05:12:40;10.13;;;2.22;;
75814;SDS011;70031;45.570;14.228;2023-07-31T05:14:41;6.18;;;3.10;;
75814;SDS011;70031;45.570;14.228;2023-07-31T05:16:41;13.15;;;2.88;;
75814;SDS011;70031;45.570;14.228;2023-07-31T05:18:42;10.43;;;2.75;;
75814;SDS011;70031;45.570;14.228;2023-07-31T05:20:42;3.15;;;2.35;;
75814;SDS011;70031;45.570;14.228;2023-07-31T05:22:42;14.55;;;3.00;;
75814;SDS011;70031;45.570;14.228;2023-07-31T05:24:45;8.38;;;2.88;;
75814;SDS011;70031;45.570;14.228;2023-07-31T05:26:45;8.32;;;3.08;;
75814;SDS011;70031;45.570;14.228;2023-07-31T05:28:46;4.68;;;2.83;;
75814;SDS011;70031;45.570;14.228;2023-07-31T05:30:46;4.82;;;3.33;;
75814;SDS011;70031;45.570;14.228;2023-07-31T05:32:47;5.55;;;3.35;;
75814;SDS011;70031;45.570;14.228;2023-07-31T05:34:47;3.97;;;2.88;;
75814;SDS011;70031;45.570;14.228;2023-07-31T05:36:50;8.68;;;3.08;;
75814;SDS011;70031;45.570;14.228;2023-07-31T05:38:50;4.40;;;3.10;;
75814;SDS011;70031;45.570;14.228;2023-07-31T05:40:51;5.05;;;3.53;;
75814;SDS011;70031;45.570;14.228;2023-07-31T05:42:51;6.97;;;3.08;;
75814;SDS011;70031;45.570;14.228;2023-07-31T05:44:52;6.05;;;3.45;;
75814;SDS011;70031;45.570;14.228;2023-07-31T05:48:54;5.22;;;2.90;;
75814;SDS011;70031;45.570;14.228;2023-07-31T05:50:55;3.80;;;2.67;;
75814;SDS011;70031;45.570;14.228;2023-07-31T05:55:29;4.97;;;3.50;;
75814;SDS011;70031;45.570;14.228;2023-07-31T05:57:30;6.80;;;4.30;;
75814;SDS011;70031;45.570;14.228;2023-07-31T05:59:30;7.00;;;4.68;;
75814;SDS011;70031;45.570;14.228;2023-07-31T06:01:33;10.88;;;6.40;;
75814;SDS011;70031;45.570;14.228;2023-07-31T06:03:36;9.50;;;5.60;;
75814;SDS011;70031;45.570;14.228;2023-07-31T06:05:43;7.93;;;5.38;;
75814;SDS011;70031;45.570;14.228;2023-07-31T06:07:46;10.55;;;6.63;;
75814;SDS011;70031;45.570;14.228;2023-07-31T06:09:48;10.48;;;6.63;;
75814;SDS011;70031;45.570;14.228;2023-07-31T06:11:49;8.77;;;5.93;;
75814;SDS011;70031;45.570;14.228;2023-07-31T06:13:50;10.13;;;6.07;;
75814;SDS011;70031;45.570;14.228;2023-07-31T06:15:50;7.03;;;4.38;;
75814;SDS011;70031;45.570;14.228;2023-07-31T06:17:53;7.10;;;4.60;;
75814;SDS011;70031;45.570;14.228;2023-07-31T06:19:53;6.38;;;3.95;;
75814;SDS011;70031;45.570;14.228;2023-07-31T06:22:00;5.80;;;3.38;;
75814;SDS011;70031;45.570;14.228;2023-07-31T06:24:22;5.03;;;3.30;;
75814;SDS011;70031;45.570;14.228;2023-07-31T06:26:22;4.80;;;2.92;;
75814;SDS011;70031;45.570;14.228;2023-07-31T06:28:26;7.72;;;5.63;;
75814;SDS011;70031;45.570;14.228;2023-07-31T06:30:29;5.78;;;3.60;;
75814;SDS011;70031;45.570;14.228;2023-07-31T06:32:31;6.03;;;4.28;;
75814;SDS011;70031;45.570;14.228;2023-07-31T06:34:36;8.93;;;5.55;;
75814;SDS011;70031;45.570;14.228;2023-07-31T06:36:36;10.52;;;5.80;;
75814;SDS011;70031;45.570;14.228;2023-07-31T06:38:36;6.45;;;4.60;;
75814;SDS011;70031;45.570;14.228;2023-07-31T06:40:37;5.90;;;4.47;;
75814;SDS011;70031;45.570;14.228;2023-07-31T06:42:40;7.03;;;4.38;;
75814;SDS011;70031;45.570;14.228;2023-07-31T06:44:41;5.70;;;3.75;;
75814;SDS011;70031;45.570;14.228;2023-07-31T06:46:42;4.55;;;3.05;;
75814;SDS011;70031;45.570;14.228;2023-07-31T06:48:42;5.28;;;3.20;;
75814;SDS011;70031;45.570;14.228;2023-07-31T06:50:43;3.63;;;2.53;;
75814;SDS011;70031;45.570;14.228;2023-07-31T06:52:43;6.95;;;1.95;;
75814;SDS011;70031;45.570;14.228;2023-07-31T06:54:43;3.83;;;2.03;;
75814;SDS011;70031;45.570;14.228;2023-07-31T06:56:44;2.97;;;2.10;;
75814;SDS011;70031;45.570;14.228;2023-07-31T06:58:44;3.90;;;2.00;;
75814;SDS011;70031;45.570;14.228;2023-07-31T07:00:45;2.35;;;1.50;;
75814;SDS011;70031;45.570;14.228;2023-07-31T07:02:45;2.50;;;1.65;;
75814;SDS011;70031;45.570;14.228;2023-07-31T07:04:51;2.22;;;1.40;;
75814;SDS011;70031;45.570;14.228;2023-07-31T07:06:52;2.53;;;1.48;;
75814;SDS011;70031;45.570;14.228;2023-07-31T07:08:55;2.50;;;1.17;;
75814;SDS011;70031;45.570;14.228;2023-07-31T07:10:57;3.10;;;1.40;;
75814;SDS011;70031;45.570;14.228;2023-07-31T07:12:58;1.30;;;1.13;;
75814;SDS011;70031;45.570;14.228;2023-07-31T07:14:58;1.73;;;1.30;;
75814;SDS011;70031;45.570;14.228;2023-07-31T07:16:59;1.40;;;1.00;;
75814;SDS011;70031;45.570;14.228;2023-07-31T07:19:00;3.22;;;1.30;;
75814;SDS011;70031;45.570;14.228;2023-07-31T07:21:00;6.88;;;1.17;;
75814;SDS011;70031;45.570;14.228;2023-07-31T07:23:02;1.60;;;1.27;;
75814;SDS011;70031;45.570;14.228;2023-07-31T07:25:03;7.95;;;1.60;;
75814;SDS011;70031;45.570;14.228;2023-07-31T07:27:04;2.35;;;1.38;;
75814;SDS011;70031;45.570;14.228;2023-07-31T07:29:05;1.48;;;1.08;;
75814;SDS011;70031;45.570;14.228;2023-07-31T07:31:07;1.77;;;0.93;;
75814;SDS011;70031;45.570;14.228;2023-07-31T07:33:08;1.42;;;1.15;;
75814;SDS011;70031;45.570;14.228;2023-07-31T07:35:08;2.83;;;1.35;;
75814;SDS011;70031;45.570;14.228;2023-07-31T07:37:11;1.75;;;1.00;;
75814;SDS011;70031;45.570;14.228;2023-07-31T07:39:12;1.45;;;1.23;;
75814;SDS011;70031;45.570;14.228;2023-07-31T07:41:12;2.47;;;1.10;;
75814;SDS011;70031;45.570;14.228;2023-07-31T07:43:13;1.40;;;0.80;;
75814;SDS011;70031;45.570;14.228;2023-07-31T07:45:13;1.48;;;1.17;;
75814;SDS011;70031;45.570;14.228;2023-07-31T07:47:13;2.20;;;1.00;;
75814;SDS011;70031;45.570;14.228;2023-07-31T07:49:14;1.80;;;1.02;;
75814;SDS011;70031;45.570;14.228;2023-07-31T07:51:14;1.60;;;1.10;;
75814;SDS011;70031;45.570;14.228;2023-07-31T07:53:15;1.90;;;1.10;;
75814;SDS011;70031;45.570;14.228;2023-07-31T07:55:15;2.55;;;0.98;;
75814;SDS011;70031;45.570;14.228;2023-07-31T07:57:15;1.55;;;1.05;;
75814;SDS011;70031;45.570;14.228;2023-07-31T07:59:24;3.05;;;1.20;;
75814;SDS011;70031;45.570;14.228;2023-07-31T08:01:25;2.58;;;1.30;;
75814;SDS011;70031;45.570;14.228;2023-07-31T08:03:25;3.35;;;1.40;;
75814;SDS011;70031;45.570;14.228;2023-07-31T08:05:26;3.88;;;1.60;;
75814;SDS011;70031;45.570;14.228;2023-07-31T08:07:34;5.35;;;1.30;;
75814;SDS011;70031;45.570;14.228;2023-07-31T08:09:34;2.58;;;1.52;;
75814;SDS011;70031;45.570;14.228;2023-07-31T08:11:34;2.47;;;1.20;;
75814;SDS011;70031;45.570;14.228;2023-07-31T08:13:52;2.28;;;1.15;;
75814;SDS011;70031;45.570;14.228;2023-07-31T08:15:55;2.50;;;1.23;;
75814;SDS011;70031;45.570;14.228;2023-07-31T08:18:00;2.38;;;1.23;;
75814;SDS011;70031;45.570;14.228;2023-07-31T08:20:03;1.67;;;1.00;;
75814;SDS011;70031;45.570;14.228;2023-07-31T08:22:07;1.70;;;1.00;;
75814;SDS011;70031;45.570;14.228;2023-07-31T08:24:08;5.47;;;1.33;;
75814;SDS011;70031;45.570;14.228;2023-07-31T08:26:14;1.77;;;1.23;;
75814;SDS011;70031;45.570;14.228;2023-07-31T08:28:18;1.10;;;1.00;;
75814;SDS011;70031;45.570;14.228;2023-07-31T08:30:18;1.33;;;1.05;;
75814;SDS011;70031;45.570;14.228;2023-07-31T08:32:19;2.45;;;1.10;;
75814;SDS011;70031;45.570;14.228;2023-07-31T08:34:20;1.73;;;1.00;;
75814;SDS011;70031;45.570;14.228;2023-07-31T08:36:23;1.80;;;1.00;;
75814;SDS011;70031;45.570;14.228;2023-07-31T08:38:23;1.67;;;1.30;;
75814;SDS011;70031;45.570;14.228;2023-07-31T08:40:25;1.38;;;1.13;;
75814;SDS011;70031;45.570;14.228;2023-07-31T08:42:29;1.80;;;1.00;;
75814;SDS011;70031;45.570;14.228;2023-07-31T08:44:33;1.42;;;1.00;;
75814;SDS011;70031;45.570;14.228;2023-07-31T08:46:37;2.00;;;1.13;;
75814;SDS011;70031;45.570;14.228;2023-07-31T08:48:38;1.10;;;1.00;;
75814;SDS011;70031;45.570;14.228;2023-07-31T08:50:42;1.42;;;0.93;;
75814;SDS011;70031;45.570;14.228;2023-07-31T08:52:43;2.33;;;1.10;;
75814;SDS011;70031;45.570;14.228;2023-07-31T08:54:45;3.00;;;1.30;;
75814;SDS011;70031;45.570;14.228;2023-07-31T08:56:46;1.75;;;1.00;;
75814;SDS011;70031;45.570;14.228;2023-07-31T08:59:34;0.80;;;0.80;;
75814;SDS011;70031;45.570;14.228;2023-07-31T09:01:37;3.03;;;1.20;;
75814;SDS011;70031;45.570;14.228;2023-07-31T09:03:44;1.45;;;0.93;;
75814;SDS011;70031;45.570;14.228;2023-07-31T09:05:46;1.27;;;1.00;;
75814;SDS011;70031;45.570;14.228;2023-07-31T09:07:47;1.48;;;1.02;;
75814;SDS011;70031;45.570;14.228;2023-07-31T09:09:56;1.98;;;1.10;;
75814;SDS011;70031;45.570;14.228;2023-07-31T09:11:57;2.42;;;1.20;;
75814;SDS011;70031;45.570;14.228;2023-07-31T09:14:00;3.22;;;1.20;;
75814;SDS011;70031;45.570;14.228;2023-07-31T09:16:05;1.52;;;0.85;;
75814;SDS011;70031;45.570;14.228;2023-07-31T09:18:09;1.20;;;1.00;;
75814;SDS011;70031;45.570;14.228;2023-07-31T09:20:16;1.55;;;1.00;;
75814;SDS011;70031;45.570;14.228;2023-07-31T09:22:17;2.05;;;1.20;;
75814;SDS011;70031;45.570;14.228;2023-07-31T09:24:30;0.77;;;0.70;;
75814;SDS011;70031;45.570;14.228;2023-07-31T09:26:35;1.58;;;0.82;;
75814;SDS011;70031;45.570;14.228;2023-07-31T09:28:36;0.82;;;0.70;;
75814;SDS011;70031;45.570;14.228;2023-07-31T09:32:48;2.55;;;1.30;;
75814;SDS011;70031;45.570;14.228;2023-07-31T09:34:49;1.48;;;0.80;;
75814;SDS011;70031;45.570;14.228;2023-07-31T09:36:52;1.13;;;0.82;;
75814;SDS011;70031;45.570;14.228;2023-07-31T09:38:53;1.42;;;0.95;;
75814;SDS011;70031;45.570;14.228;2023-07-31T09:40:56;1.13;;;0.73;;
75814;SDS011;70031;45.570;14.228;2023-07-31T09:43:16;1.58;;;0.93;;
75814;SDS011;70031;45.570;14.228;2023-07-31T09:45:20;1.67;;;0.85;;
75814;SDS011;70031;45.570;14.228;2023-07-31T09:47:21;1.33;;;0.90;;
75814;SDS011;70031;45.570;14.228;2023-07-31T09:49:45;1.73;;;0.98;;
75814;SDS011;70031;45.570;14.228;2023-07-31T09:51:48;1.65;;;0.95;;
75814;SDS011;70031;45.570;14.228;2023-07-31T09:53:52;0.88;;;0.70;;
75814;SDS011;70031;45.570;14.228;2023-07-31T09:55:54;1.08;;;0.63;;
75814;SDS011;70031;45.570;14.228;2023-07-31T09:58:01;3.63;;;1.10;;
75814;SDS011;70031;45.570;14.228;2023-07-31T10:00:29;1.20;;;0.90;;
75814;SDS011;70031;45.570;14.228;2023-07-31T10:02:35;2.08;;;0.98;;
75814;SDS011;70031;45.570;14.228;2023-07-31T10:04:42;1.33;;;0.85;;
75814;SDS011;70031;45.570;14.228;2023-07-31T10:06:47;1.45;;;0.85;;
75814;SDS011;70031;45.570;14.228;2023-07-31T10:08:56;0.93;;;0.70;;
75814;SDS011;70031;45.570;14.228;2023-07-31T10:10:58;1.02;;;0.60;;
75814;SDS011;70031;45.570;14.228;2023-07-31T10:13:18;1.13;;;0.75;;
75814;SDS011;70031;45.570;14.228;2023-07-31T10:15:22;4.03;;;1.00;;
75814;SDS011;70031;45.570;14.228;2023-07-31T10:17:26;0.60;;;0.60;;
75814;SDS011;70031;45.570;14.228;2023-07-31T10:19:26;1.17;;;0.90;;
75814;SDS011;70031;45.570;14.228;2023-07-31T10:21:30;1.23;;;0.75;;
75814;SDS011;70031;45.570;14.228;2023-07-31T10:23:35;1.90;;;0.90;;
75814;SDS011;70031;45.570;14.228;2023-07-31T10:25:36;1.35;;;0.90;;
75814;SDS011;70031;45.570;14.228;2023-07-31T10:29:39;2.25;;;1.30;;
75814;SDS011;70031;45.570;14.228;2023-07-31T10:31:41;1.10;;;0.80;;
75814;SDS011;70031;45.570;14.228;2023-07-31T10:33:42;1.50;;;0.80;;
75814;SDS011;70031;45.570;14.228;2023-07-31T10:35:43;1.52;;;1.10;;
75814;SDS011;70031;45.570;14.228;2023-07-31T10:37:46;1.77;;;0.88;;
75814;SDS011;70031;45.570;14.228;2023-07-31T10:39:55;1.73;;;1.00;;
75814;SDS011;70031;45.570;14.228;2023-07-31T10:41:59;1.33;;;1.00;;
75814;SDS011;70031;45.570;14.228;2023-07-31T10:44:10;1.42;;;0.82;;
75814;SDS011;70031;45.570;14.228;2023-07-31T10:46:13;1.40;;;0.90;;
75814;SDS011;70031;45.570;14.228;2023-07-31T10:48:16;1.77;;;0.90;;
75814;SDS011;70031;45.570;14.228;2023-07-31T10:50:23;1.10;;;0.80;;
75814;SDS011;70031;45.570;14.228;2023-07-31T10:52:26;0.80;;;0.70;;
75814;SDS011;70031;45.570;14.228;2023-07-31T10:54:35;1.23;;;0.80;;
75814;SDS011;70031;45.570;14.228;2023-07-31T10:56:38;1.27;;;0.80;;
75814;SDS011;70031;45.570;14.228;2023-07-31T10:58:39;2.00;;;0.82;;
75814;SDS011;70031;45.570;14.228;2023-07-31T11:00:44;1.65;;;1.10;;
75814;SDS011;70031;45.570;14.228;2023-07-31T11:03:06;1.25;;;1.00;;
75814;SDS011;70031;45.570;14.228;2023-07-31T11:05:11;1.80;;;0.90;;
75814;SDS011;70031;45.570;14.228;2023-07-31T11:07:18;2.42;;;0.90;;
75814;SDS011;70031;45.570;14.228;2023-07-31T11:09:25;2.28;;;1.20;;
75814;SDS011;70031;45.570;14.228;2023-07-31T11:11:43;1.48;;;0.90;;
75814;SDS011;70031;45.570;14.228;2023-07-31T11:15:57;1.55;;;1.05;;
75814;SDS011;70031;45.570;14.228;2023-07-31T11:17:57;1.00;;;0.80;;
75814;SDS011;70031;45.570;14.228;2023-07-31T11:19:59;2.25;;;1.10;;
75814;SDS011;70031;45.570;14.228;2023-07-31T11:22:00;1.10;;;0.90;;
75814;SDS011;70031;45.570;14.228;2023-07-31T11:24:01;1.70;;;0.90;;
75814;SDS011;70031;45.570;14.228;2023-07-31T11:26:11;2.13;;;0.95;;
75814;SDS011;70031;45.570;14.228;2023-07-31T11:28:15;1.63;;;1.00;;
75814;SDS011;70031;45.570;14.228;2023-07-31T11:30:18;2.88;;;1.20;;
75814;SDS011;70031;45.570;14.228;2023-07-31T11:32:19;1.55;;;0.93;;
75814;SDS011;70031;45.570;14.228;2023-07-31T11:34:21;1.33;;;0.88;;
75814;SDS011;70031;45.570;14.228;2023-07-31T11:36:25;1.60;;;1.00;;
75814;SDS011;70031;45.570;14.228;2023-07-31T11:38:28;1.30;;;0.90;;
75814;SDS011;70031;45.570;14.228;2023-07-31T11:40:58;3.63;;;1.05;;
75814;SDS011;70031;45.570;14.228;2023-07-31T11:43:03;1.67;;;1.10;;
75814;SDS011;70031;45.570;14.228;2023-07-31T11:45:04;1.77;;;1.02;;
75814;SDS011;70031;45.570;14.228;2023-07-31T11:47:13;2.42;;;1.10;;
75814;SDS011;70031;45.570;14.228;2023-07-31T11:49:16;1.45;;;1.10;;
75814;SDS011;70031;45.570;14.228;2023-07-31T11:51:24;2.15;;;1.40;;
75814;SDS011;70031;45.570;14.228;2023-07-31T11:55:43;1.23;;;0.82;;
75814;SDS011;70031;45.570;14.228;2023-07-31T11:57:52;1.85;;;1.08;;
75814;SDS011;70031;45.570;14.228;2023-07-31T11:59:58;1.58;;;1.00;;
75814;SDS011;70031;45.570;14.228;2023-07-31T12:01:59;2.63;;;1.20;;
75814;SDS011;70031;45.570;14.228;2023-07-31T12:04:07;1.67;;;1.00;;
75814;SDS011;70031;45.570;14.228;2023-07-31T12:06:10;2.00;;;1.02;;
75814;SDS011;70031;45.570;14.228;2023-07-31T12:08:11;1.83;;;1.10;;
75814;SDS011;70031;45.570;14.228;2023-07-31T12:10:37;1.83;;;1.08;;
75814;SDS011;70031;45.570;14.228;2023-07-31T12:12:38;1.27;;;0.80;;
75814;SDS011;70031;45.570;14.228;2023-07-31T12:14:41;1.20;;;0.90;;
75814;SDS011;70031;45.570;14.228;2023-07-31T12:16:42;1.38;;;0.80;;
75814;SDS011;70031;45.570;14.228;2023-07-31T12:18:42;1.42;;;1.00;;
75814;SDS011;70031;45.570;14.228;2023-07-31T12:23:30;1.13;;;0.82;;
75814;SDS011;70031;45.570;14.228;2023-07-31T12:25:35;3.75;;;1.08;;
75814;SDS011;70031;45.570;14.228;2023-07-31T12:30:40;1.13;;;0.82;;
75814;SDS011;70031;45.570;14.228;2023-07-31T12:32:45;0.77;;;0.77;;
75814;SDS011;70031;45.570;14.228;2023-07-31T12:34:45;1.17;;;0.68;;
75814;SDS011;70031;45.570;14.228;2023-07-31T12:36:53;0.85;;;0.70;;
75814;SDS011;70031;45.570;14.228;2023-07-31T12:39:05;3.55;;;0.88;;
75814;SDS011;70031;45.570;14.228;2023-07-31T12:43:48;0.88;;;0.80;;
75814;SDS011;70031;45.570;14.228;2023-07-31T12:46:11;0.77;;;0.70;;
75814;SDS011;70031;45.570;14.228;2023-07-31T12:48:14;1.20;;;0.90;;
75814;SDS011;70031;45.570;14.228;2023-07-31T12:50:17;1.90;;;1.23;;
75814;SDS011;70031;45.570;14.228;2023-07-31T12:52:45;1.80;;;0.88;;
75814;SDS011;70031;45.570;14.228;2023-07-31T12:55:03;0.82;;;0.73;;
75814;SDS011;70031;45.570;14.228;2023-07-31T12:57:21;1.55;;;0.90;;
75814;SDS011;70031;45.570;14.228;2023-07-31T12:59:28;1.80;;;1.00;;
75814;SDS011;70031;45.570;14.228;2023-07-31T13:02:00;1.52;;;0.90;;
75814;SDS011;70031;45.570;14.228;2023-07-31T13:04:37;1.83;;;1.08;;
75814;SDS011;70031;45.570;14.228;2023-07-31T13:06:38;1.80;;;0.82;;
75814;SDS011;70031;45.570;14.228;2023-07-31T13:09:30;1.33;;;0.90;;
75814;SDS011;70031;45.570;14.228;2023-07-31T13:11:30;1.35;;;0.80;;
75814;SDS011;70031;45.570;14.228;2023-07-31T13:13:43;2.13;;;0.77;;
75814;SDS011;70031;45.570;14.228;2023-07-31T13:15:52;0.90;;;0.80;;
75814;SDS011;70031;45.570;14.228;2023-07-31T13:20:19;1.40;;;0.80;;
75814;SDS011;70031;45.570;14.228;2023-07-31T13:22:22;1.52;;;0.98;;
75814;SDS011;70031;45.570;14.228;2023-07-31T13:24:41;1.27;;;1.00;;
75814;SDS011;70031;45.570;14.228;2023-07-31T13:35:30;2.60;;;1.13;;
75814;SDS011;70031;45.570;14.228;2023-07-31T13:46:32;1.38;;;0.90;;
75814;SDS011;70031;45.570;14.228;2023-07-31T13:48:43;1.25;;;0.85;;
75814;SDS011;70031;45.570;14.228;2023-07-31T13:50:47;1.35;;;0.73;;
75814;SDS011;70031;45.570;14.228;2023-07-31T13:52:49;4.75;;;0.80;;
75814;SDS011;70031;45.570;14.228;2023-07-31T13:55:08;1.58;;;0.80;;
75814;SDS011;70031;45.570;14.228;2023-07-31T13:57:14;1.60;;;0.85;;
75814;SDS011;70031;45.570;14.228;2023-07-31T14:08:48;1.42;;;0.90;;
75814;SDS011;70031;45.570;14.228;2023-07-31T14:10:55;0.80;;;0.70;;
75814;SDS011;70031;45.570;14.228;2023-07-31T14:13:37;1.38;;;1.05;;
75814;SDS011;70031;45.570;14.228;2023-07-31T14:16:23;0.88;;;0.80;;
75814;SDS011;70031;45.570;14.228;2023-07-31T14:21:51;0.82;;;0.82;;
75814;SDS011;70031;45.570;14.228;2023-07-31T14:40:45;0.93;;;0.80;;
75814;SDS011;70031;45.570;14.228;2023-07-31T14:42:48;1.40;;;1.00;;
75814;SDS011;70031;45.570;14.228;2023-07-31T14:50:37;1.80;;;0.90;;
75814;SDS011;70031;45.570;14.228;2023-07-31T14:52:38;1.85;;;1.00;;
75814;SDS011;70031;45.570;14.228;2023-07-31T14:54:39;2.22;;;0.80;;
75814;SDS011;70031;45.570;14.228;2023-07-31T14:56:40;1.50;;;1.10;;
75814;SDS011;70031;45.570;14.228;2023-07-31T14:59:00;2.22;;;1.02;;
75814;SDS011;70031;45.570;14.228;2023-07-31T15:04:23;1.17;;;0.90;;
75814;SDS011;70031;45.570;14.228;2023-07-31T15:09:01;2.42;;;0.90;;
75814;SDS011;70031;45.570;14.228;2023-07-31T15:11:01;1.42;;;0.95;;
75814;SDS011;70031;45.570;14.228;2023-07-31T15:13:05;1.55;;;0.95;;
75814;SDS011;70031;45.570;14.228;2023-07-31T15:15:05;2.53;;;0.95;;
75814;SDS011;70031;45.570;14.228;2023-07-31T15:17:06;1.67;;;0.77;;
75814;SDS011;70031;45.570;14.228;2023-07-31T15:19:07;0.80;;;0.80;;
75814;SDS011;70031;45.570;14.228;2023-07-31T15:21:07;2.38;;;1.05;;
75814;SDS011;70031;45.570;14.228;2023-07-31T15:23:11;1.17;;;0.90;;
75814;SDS011;70031;45.570;14.228;2023-07-31T15:25:12;1.80;;;1.20;;
75814;SDS011;70031;45.570;14.228;2023-07-31T15:27:13;1.33;;;1.00;;
75814;SDS011;70031;45.570;14.228;2023-07-31T15:29:19;1.10;;;0.88;;
75814;SDS011;70031;45.570;14.228;2023-07-31T15:31:22;1.77;;;0.90;;
75814;SDS011;70031;45.570;14.228;2023-07-31T15:33:25;1.50;;;0.90;;
75814;SDS011;70031;45.570;14.228;2023-07-31T15:35:42;1.88;;;0.82;;
75814;SDS011;70031;45.570;14.228;2023-07-31T15:38:06;1.33;;;0.90;;
75814;SDS011;70031;45.570;14.228;2023-07-31T15:40:17;1.63;;;0.90;;
75814;SDS011;70031;45.570;14.228;2023-07-31T15:42:19;1.35;;;1.10;;
75814;SDS011;70031;45.570;14.228;2023-07-31T15:44:40;1.10;;;0.80;;
75814;SDS011;70031;45.570;14.228;2023-07-31T15:46:42;1.58;;;1.02;;
75814;SDS011;70031;45.570;14.228;2023-07-31T15:48:49;1.17;;;0.80;;
75814;SDS011;70031;45.570;14.228;2023-07-31T15:50:56;1.00;;;0.90;;
75814;SDS011;70031;45.570;14.228;2023-07-31T15:53:09;1.40;;;1.00;;
75814;SDS011;70031;45.570;14.228;2023-07-31T15:55:15;1.55;;;0.93;;
75814;SDS011;70031;45.570;14.228;2023-07-31T15:57:16;1.58;;;1.02;;
75814;SDS011;70031;45.570;14.228;2023-07-31T15:59:21;2.58;;;1.15;;
75814;SDS011;70031;45.570;14.228;2023-07-31T16:01:28;2.03;;;0.90;;
75814;SDS011;70031;45.570;14.228;2023-07-31T16:04:02;1.50;;;1.00;;
75814;SDS011;70031;45.570;14.228;2023-07-31T16:06:11;1.95;;;1.13;;
75814;SDS011;70031;45.570;14.228;2023-07-31T16:08:13;1.42;;;1.08;;
75814;SDS011;70031;45.570;14.228;2023-07-31T16:10:14;2.30;;;1.23;;
75814;SDS011;70031;45.570;14.228;2023-07-31T16:12:19;1.25;;;1.00;;
75814;SDS011;70031;45.570;14.228;2023-07-31T16:14:20;1.30;;;1.10;;
75814;SDS011;70031;45.570;14.228;2023-07-31T16:16:23;2.50;;;1.20;;
75814;SDS011;70031;45.570;14.228;2023-07-31T16:18:27;1.35;;;0.88;;
75814;SDS011;70031;45.570;14.228;2023-07-31T16:20:27;1.45;;;1.00;;